sensor_id;sensor_type;location;lat;lon;timestamp;pressure;altitude;pressure_sealevel;temperature;humidity
46756;BME280;32506;52.826;-1.192;2023-04-03T00:01:23;102630.94;;;4.14;51.50
46756;BME280;32506;52.826;-1.192;2023-04-03T00:03:49;102627.94;;;4.07;51.60
46756;BME280;32506;52.826;-1.192;2023-04-03T00:06:15;102633.56;;;4.02;51.58
46756;BME280;32506;52.826;-1.192;2023-04-03T00:08:41;102624.31;;;3.97;51.49
46756;BME280;32506;52.826;-1.192;2023-04-03T00:11:07;102622.84;;;3.93;51.49
46756;BME280;32506;52.826;-1.192;2023-04-03T00:13:33;102625.97;;;3.86;51.65
46756;BME280;32506;52.826;-1.192;2023-04-03T00:15:59;102626.47;;;3.80;51.57
46756;BME280;32506;52.826;-1.192;2023-04-03T00:18:24;102625.00;;;3.76;51.90
46756;BME280;32506;52.826;-1.192;2023-04-03T00:20:50;102628.94;;;3.70;51.57
46756;BME280;32506;52.826;-1.192;2023-04-03T00:23:16;102628.47;;;3.65;51.42
46756;BME280;32506;52.826;-1.192;2023-04-03T00:25:42;102627.03;;;3.61;51.72
46756;BME280;32506;52.826;-1.192;2023-04-03T00:28:08;102620.38;;;3.56;51.81
46756;BME280;32506;52.826;-1.192;2023-04-03T00:30:34;102620.75;;;3.51;51.56
46756;BME280;32506;52.826;-1.192;2023-04-03T00:32:59;102622.88;;;3.46;51.62
46756;BME280;32506;52.826;-1.192;2023-04-03T00:35:26;102613.63;;;3.40;51.71
46756;BME280;32506;52.826;-1.192;2023-04-03T00:37:53;102618.41;;;3.35;51.64
46756;BME280;32506;52.826;-1.192;2023-04-03T00:40:19;102616.13;;;3.30;51.72
46756;BME280;32506;52.826;-1.192;2023-04-03T00:42:47;102618.25;;;3.25;51.76
46756;BME280;32506;52.826;-1.192;2023-04-03T00:47:45;102622.53;;;3.15;51.56
46756;BME280;32506;52.826;-1.192;2023-04-03T00:50:11;102622.03;;;3.10;51.51
46756;BME280;32506;52.826;-1.192;2023-04-03T00:52:37;102627.66;;;3.05;51.54
46756;BME280;32506;52.826;-1.192;2023-04-03T00:55:06;102626.28;;;2.99;52.11
46756;BME280;32506;52.826;-1.192;2023-04-03T00:57:33;102630.97;;;2.96;51.48
46756;BME280;32506;52.826;-1.192;2023-04-03T01:00:02;102625.19;;;2.91;51.69
46756;BME280;32506;52.826;-1.192;2023-04-03T01:02:28;102630.81;;;2.86;51.60
46756;BME280;32506;52.826;-1.192;2023-04-03T01:04:53;102630.31;;;2.81;51.95
46756;BME280;32506;52.826;-1.192;2023-04-03T01:07:22;102627.97;;;2.76;51.64
46756;BME280;32506;52.826;-1.192;2023-04-03T01:09:51;102627.38;;;2.73;51.96
46756;BME280;32506;52.826;-1.192;2023-04-03T01:12:20;102626.84;;;2.67;51.91
46756;BME280;32506;52.826;-1.192;2023-04-03T01:14:49;102628.88;;;2.64;51.70
46756;BME280;32506;52.826;-1.192;2023-04-03T01:25:32;102626.81;;;2.43;51.93
46756;BME280;32506;52.826;-1.192;2023-04-03T01:27:58;102623.66;;;2.38;51.96
46756;BME280;32506;52.826;-1.192;2023-04-03T01:30:30;102625.66;;;2.34;51.84
46756;BME280;32506;52.826;-1.192;2023-04-03T01:32:56;102625.03;;;2.31;51.97
46756;BME280;32506;52.826;-1.192;2023-04-03T01:35:22;102623.56;;;2.27;51.88
46756;BME280;32506;52.826;-1.192;2023-04-03T01:37:47;102621.25;;;2.22;52.32
46756;BME280;32506;52.826;-1.192;2023-04-03T01:40:13;102618.09;;;2.17;51.80
46756;BME280;32506;52.826;-1.192;2023-04-03T01:42:38;102621.91;;;2.13;52.46
46756;BME280;32506;52.826;-1.192;2023-04-03T01:45:04;102618.63;;;2.09;52.13
46756;BME280;32506;52.826;-1.192;2023-04-03T01:47:30;102618.84;;;2.06;52.09
46756;BME280;32506;52.826;-1.192;2023-04-03T01:49:55;102624.34;;;2.03;52.20
46756;BME280;32506;52.826;-1.192;2023-04-03T01:52:21;102611.34;;;2.00;52.13
46756;BME280;32506;52.826;-1.192;2023-04-03T01:54:46;102618.53;;;1.98;52.09
46756;BME280;32506;52.826;-1.192;2023-04-03T01:57:11;102616.19;;;1.93;52.25
46756;BME280;32506;52.826;-1.192;2023-04-03T01:59:38;102610.41;;;1.88;52.28
46756;BME280;32506;52.826;-1.192;2023-04-03T02:02:04;102615.78;;;1.87;52.38
46756;BME280;32506;52.826;-1.192;2023-04-03T02:04:29;102616.00;;;1.83;52.53
46756;BME280;32506;52.826;-1.192;2023-04-03T02:06:55;102616.22;;;1.80;52.54
46756;BME280;32506;52.826;-1.192;2023-04-03T02:09:20;102606.72;;;1.78;51.97
46756;BME280;32506;52.826;-1.192;2023-04-03T02:11:45;102605.25;;;1.74;52.29
46756;BME280;32506;52.826;-1.192;2023-04-03T02:14:11;102615.03;;;1.72;52.76
46756;BME280;32506;52.826;-1.192;2023-04-03T02:16:36;102612.63;;;1.68;52.87
46756;BME280;32506;52.826;-1.192;2023-04-03T02:19:02;102607.56;;;1.65;52.40
46756;BME280;32506;52.826;-1.192;2023-04-03T02:21:28;102603.44;;;1.61;52.10
46756;BME280;32506;52.826;-1.192;2023-04-03T02:23:53;102607.84;;;1.61;52.07
46756;BME280;32506;52.826;-1.192;2023-04-03T02:26:19;102612.50;;;1.57;52.56
46756;BME280;32506;52.826;-1.192;2023-04-03T02:28:44;102603.09;;;1.53;52.85
46756;BME280;32506;52.826;-1.192;2023-04-03T02:31:10;102608.59;;;1.50;52.45
46756;BME280;32506;52.826;-1.192;2023-04-03T02:33:36;102601.72;;;1.47;52.60
46756;BME280;32506;52.826;-1.192;2023-04-03T02:36:05;102601.94;;;1.44;52.51
46756;BME280;32506;52.826;-1.192;2023-04-03T02:38:32;102610.06;;;1.41;52.38
46756;BME280;32506;52.826;-1.192;2023-04-03T02:41:06;102604.03;;;1.39;52.76
46756;BME280;32506;52.826;-1.192;2023-04-03T02:43:32;102606.88;;;1.36;52.37
46756;BME280;32506;52.826;-1.192;2023-04-03T02:45:58;102607.09;;;1.33;52.80
46756;BME280;32506;52.826;-1.192;2023-04-03T02:48:23;102604.53;;;1.31;52.17
46756;BME280;32506;52.826;-1.192;2023-04-03T02:50:49;102599.59;;;1.27;52.10
46756;BME280;32506;52.826;-1.192;2023-04-03T02:53:14;102599.81;;;1.24;52.38
46756;BME280;32506;52.826;-1.192;2023-04-03T02:55:40;102598.22;;;1.21;52.88
46756;BME280;32506;52.826;-1.192;2023-04-03T02:58:06;102597.56;;;1.17;52.63
46756;BME280;32506;52.826;-1.192;2023-04-03T03:00:32;102606.41;;;1.16;52.64
46756;BME280;32506;52.826;-1.192;2023-04-03T03:02:57;102604.91;;;1.12;52.53
46756;BME280;32506;52.826;-1.192;2023-04-03T03:05:23;102610.28;;;1.11;52.18
46756;BME280;32506;52.826;-1.192;2023-04-03T03:07:48;102603.53;;;1.07;52.10
46756;BME280;32506;52.826;-1.192;2023-04-03T03:10:13;102608.03;;;1.05;52.77
46756;BME280;32506;52.826;-1.192;2023-04-03T03:12:39;102605.63;;;1.02;52.25
46756;BME280;32506;52.826;-1.192;2023-04-03T03:15:06;102609.28;;;0.99;52.02
46756;BME280;32506;52.826;-1.192;2023-04-03T03:17:32;102601.59;;;0.96;52.60
46756;BME280;32506;52.826;-1.192;2023-04-03T03:19:57;102597.50;;;0.92;52.18
46756;BME280;32506;52.826;-1.192;2023-04-03T03:22:23;102589.78;;;0.89;52.15
46756;BME280;32506;52.826;-1.192;2023-04-03T03:24:48;102595.25;;;0.86;52.17
46756;BME280;32506;52.826;-1.192;2023-04-03T03:27:14;102596.28;;;0.83;52.12
46756;BME280;32506;52.826;-1.192;2023-04-03T03:29:41;102593.84;;;0.80;52.06
46756;BME280;32506;52.826;-1.192;2023-04-03T03:32:07;102592.38;;;0.76;52.39
46756;BME280;32506;52.826;-1.192;2023-04-03T03:34:32;102596.88;;;0.74;52.60
46756;BME280;32506;52.826;-1.192;2023-04-03T03:36:58;102597.06;;;0.71;52.19
46756;BME280;32506;52.826;-1.192;2023-04-03T03:39:23;102600.66;;;0.70;52.64
46756;BME280;32506;52.826;-1.192;2023-04-03T03:41:49;102597.47;;;0.64;52.55
46756;BME280;32506;52.826;-1.192;2023-04-03T03:44:15;102588.94;;;0.61;52.61
46756;BME280;32506;52.826;-1.192;2023-04-03T03:46:40;102598.69;;;0.59;52.69
46756;BME280;32506;52.826;-1.192;2023-04-03T03:49:05;102600.59;;;0.57;52.24
46756;BME280;32506;52.826;-1.192;2023-04-03T03:51:31;102598.16;;;0.54;52.23
46756;BME280;32506;52.826;-1.192;2023-04-03T03:53:56;102596.66;;;0.49;52.16
46756;BME280;32506;52.826;-1.192;2023-04-03T03:56:22;102595.91;;;0.47;52.02
46756;BME280;32506;52.826;-1.192;2023-04-03T03:58:47;102594.31;;;0.45;52.61
46756;BME280;32506;52.826;-1.192;2023-04-03T04:01:14;102595.38;;;0.42;52.28
46756;BME280;32506;52.826;-1.192;2023-04-03T04:03:40;102592.94;;;0.39;51.96
46756;BME280;32506;52.826;-1.192;2023-04-03T04:06:06;102595.72;;;0.36;52.76
46756;BME280;32506;52.826;-1.192;2023-04-03T04:08:31;102595.94;;;0.33;52.21
46756;BME280;32506;52.826;-1.192;2023-04-03T04:10:57;102586.44;;;0.30;52.59
46756;BME280;32506;52.826;-1.192;2023-04-03T04:13:24;102592.75;;;0.28;52.18
46756;BME280;32506;52.826;-1.192;2023-04-03T04:15:49;102599.03;;;0.25;52.56
46756;BME280;32506;52.826;-1.192;2023-04-03T04:18:14;102595.66;;;0.23;52.12
46756;BME280;32506;52.826;-1.192;2023-04-03T04:20:40;102596.72;;;0.21;52.31
46756;BME280;32506;52.826;-1.192;2023-04-03T04:23:05;102599.53;;;0.18;52.03
46756;BME280;32506;52.826;-1.192;2023-04-03T04:25:31;102591.81;;;0.14;52.51
46756;BME280;32506;52.826;-1.192;2023-04-03T04:27:57;102593.72;;;0.12;52.54
46756;BME280;32506;52.826;-1.192;2023-04-03T04:30:23;102600.09;;;0.08;52.11
46756;BME280;32506;52.826;-1.192;2023-04-03T04:32:48;102598.41;;;0.07;52.56
46756;BME280;32506;52.826;-1.192;2023-04-03T04:35:14;102594.19;;;0.05;52.08
46756;BME280;32506;52.826;-1.192;2023-04-03T04:37:39;102589.13;;;0.02;52.27
46756;BME280;32506;52.826;-1.192;2023-04-03T04:40:05;102598.88;;;-0.01;52.26
46756;BME280;32506;52.826;-1.192;2023-04-03T04:42:31;102594.63;;;-0.03;52.01
46756;BME280;32506;52.826;-1.192;2023-04-03T04:44:57;102594.84;;;-0.06;52.26
46756;BME280;32506;52.826;-1.192;2023-04-03T04:47:22;102600.19;;;-0.08;52.13
46756;BME280;32506;52.826;-1.192;2023-04-03T04:49:47;102595.03;;;-0.09;52.28
46756;BME280;32506;52.826;-1.192;2023-04-03T04:52:13;102591.72;;;-0.13;52.52
46756;BME280;32506;52.826;-1.192;2023-04-03T04:54:39;102586.66;;;-0.16;52.52
46756;BME280;32506;52.826;-1.192;2023-04-03T04:57:04;102587.69;;;-0.19;52.41
46756;BME280;32506;52.826;-1.192;2023-04-03T04:59:30;102589.47;;;-0.19;52.49
46756;BME280;32506;52.826;-1.192;2023-04-03T05:01:55;102588.81;;;-0.23;52.57
46756;BME280;32506;52.826;-1.192;2023-04-03T05:04:21;102588.06;;;-0.25;52.78
46756;BME280;32506;52.826;-1.192;2023-04-03T05:06:46;102589.94;;;-0.27;52.44
46756;BME280;32506;52.826;-1.192;2023-04-03T05:09:12;102587.47;;;-0.30;52.51
46756;BME280;32506;52.826;-1.192;2023-04-03T05:11:38;102591.91;;;-0.30;52.36
46756;BME280;32506;52.826;-1.192;2023-04-03T05:14:03;102590.31;;;-0.33;52.65
46756;BME280;32506;52.826;-1.192;2023-04-03T05:16:32;102588.69;;;-0.36;52.77
46756;BME280;32506;52.826;-1.192;2023-04-03T05:18:57;102592.34;;;-0.38;52.51
46756;BME280;32506;52.826;-1.192;2023-04-03T05:21:23;102592.44;;;-0.40;52.50
46756;BME280;32506;52.826;-1.192;2023-04-03T05:23:51;102595.19;;;-0.41;52.34
46756;BME280;32506;52.826;-1.192;2023-04-03T05:26:16;102593.56;;;-0.44;52.60
46756;BME280;32506;52.826;-1.192;2023-04-03T05:28:45;102599.84;;;-0.46;52.83
46756;BME280;32506;52.826;-1.192;2023-04-03T05:31:11;102594.69;;;-0.48;52.68
46756;BME280;32506;52.826;-1.192;2023-04-03T05:33:38;102594.88;;;-0.51;52.38
46756;BME280;32506;52.826;-1.192;2023-04-03T05:36:04;102600.97;;;-0.51;52.84
46756;BME280;32506;52.826;-1.192;2023-04-03T05:38:30;102601.16;;;-0.54;52.58
46756;BME280;32506;52.826;-1.192;2023-04-03T05:40:56;102608.28;;;-0.56;52.57
46756;BME280;32506;52.826;-1.192;2023-04-03T05:43:21;102607.53;;;-0.58;52.36
46756;BME280;32506;52.826;-1.192;2023-04-03T05:45:47;102607.59;;;-0.59;52.64
46756;BME280;32506;52.826;-1.192;2023-04-03T05:48:13;102616.44;;;-0.60;52.97
46756;BME280;32506;52.826;-1.192;2023-04-03T05:50:38;102611.25;;;-0.62;52.77
46756;BME280;32506;52.826;-1.192;2023-04-03T05:53:08;102606.19;;;-0.65;52.76
46756;BME280;32506;52.826;-1.192;2023-04-03T05:55:39;102607.97;;;-0.65;52.61
46756;BME280;32506;52.826;-1.192;2023-04-03T05:58:05;102608.91;;;-0.66;53.05
46756;BME280;32506;52.826;-1.192;2023-04-03T06:00:30;102612.47;;;-0.68;53.00
46756;BME280;32506;52.826;-1.192;2023-04-03T06:02:56;102618.63;;;-0.69;53.47
46756;BME280;32506;52.826;-1.192;2023-04-03T06:05:21;102615.19;;;-0.69;53.63
46756;BME280;32506;52.826;-1.192;2023-04-03T06:07:47;102609.91;;;-0.69;53.58
46756;BME280;32506;52.826;-1.192;2023-04-03T06:10:14;102617.81;;;-0.69;53.52
46756;BME280;32506;52.826;-1.192;2023-04-03T06:12:40;102607.19;;;-0.68;54.09
46756;BME280;32506;52.826;-1.192;2023-04-03T06:15:05;102620.25;;;-0.66;53.95
46756;BME280;32506;52.826;-1.192;2023-04-03T06:17:33;102612.28;;;-0.64;54.15
46756;BME280;32506;52.826;-1.192;2023-04-03T06:19:58;102606.09;;;-0.63;54.23
46756;BME280;32506;52.826;-1.192;2023-04-03T06:22:24;102614.75;;;-0.61;54.68
46756;BME280;32506;52.826;-1.192;2023-04-03T06:24:50;102621.59;;;-0.59;54.58
46756;BME280;32506;52.826;-1.192;2023-04-03T06:27:16;102624.13;;;-0.57;54.90
46756;BME280;32506;52.826;-1.192;2023-04-03T06:29:42;102622.25;;;-0.55;54.67
46756;BME280;32506;52.826;-1.192;2023-04-03T06:32:08;102621.31;;;-0.54;54.70
46756;BME280;32506;52.826;-1.192;2023-04-03T06:34:33;102626.41;;;-0.51;54.79
46756;BME280;32506;52.826;-1.192;2023-04-03T06:36:59;102619.28;;;-0.49;54.60
46756;BME280;32506;52.826;-1.192;2023-04-03T06:39:24;102622.66;;;-0.47;54.40
46756;BME280;32506;52.826;-1.192;2023-04-03T06:41:50;102626.03;;;-0.45;54.46
46756;BME280;32506;52.826;-1.192;2023-04-03T06:44:16;102623.22;;;-0.42;54.35
46756;BME280;32506;52.826;-1.192;2023-04-03T06:46:43;102626.59;;;-0.40;54.57
46756;BME280;32506;52.826;-1.192;2023-04-03T06:49:09;102620.34;;;-0.37;54.49
46756;BME280;32506;52.826;-1.192;2023-04-03T06:51:35;102616.78;;;-0.36;54.46
46756;BME280;32506;52.826;-1.192;2023-04-03T06:54:02;102620.91;;;-0.32;54.93
46756;BME280;32506;52.826;-1.192;2023-04-03T06:56:28;102623.34;;;-0.29;54.76
46756;BME280;32506;52.826;-1.192;2023-04-03T06:58:55;102625.78;;;-0.26;55.01
46756;BME280;32506;52.826;-1.192;2023-04-03T07:01:24;102618.56;;;-0.22;54.95
46756;BME280;32506;52.826;-1.192;2023-04-03T07:03:50;102608.72;;;-0.19;55.49
46756;BME280;32506;52.826;-1.192;2023-04-03T07:06:17;102616.31;;;-0.14;55.98
46756;BME280;32506;52.826;-1.192;2023-04-03T07:08:43;102612.56;;;-0.10;56.02
46756;BME280;32506;52.826;-1.192;2023-04-03T07:11:09;102609.69;;;-0.05;55.85
46756;BME280;32506;52.826;-1.192;2023-04-03T07:13:35;102609.28;;;0.01;56.03
46756;BME280;32506;52.826;-1.192;2023-04-03T07:16:01;102610.78;;;0.05;56.63
46756;BME280;32506;52.826;-1.192;2023-04-03T07:18:28;102607.03;;;0.09;56.77
46756;BME280;32506;52.826;-1.192;2023-04-03T07:20:54;102608.47;;;0.15;56.53
46756;BME280;32506;52.826;-1.192;2023-04-03T07:23:20;102613.41;;;0.20;56.76
46756;BME280;32506;52.826;-1.192;2023-04-03T07:25:47;102609.56;;;0.25;56.52
46756;BME280;32506;52.826;-1.192;2023-04-03T07:28:13;102618.00;;;0.30;57.00
46756;BME280;32506;52.826;-1.192;2023-04-03T07:30:47;102614.16;;;0.36;56.81
46756;BME280;32506;52.826;-1.192;2023-04-03T07:33:14;102612.94;;;0.42;56.90
46756;BME280;32506;52.826;-1.192;2023-04-03T07:35:41;102610.78;;;0.48;57.42
46756;BME280;32506;52.826;-1.192;2023-04-03T07:38:06;102617.44;;;0.54;57.44
46756;BME280;32506;52.826;-1.192;2023-04-03T07:40:33;102615.25;;;0.61;58.06
46756;BME280;32506;52.826;-1.192;2023-04-03T07:42:58;102616.53;;;0.68;57.94
46756;BME280;32506;52.826;-1.192;2023-04-03T07:45:25;102617.00;;;0.75;58.18
46756;BME280;32506;52.826;-1.192;2023-04-03T07:47:50;102622.59;;;0.83;58.50
46756;BME280;32506;52.826;-1.192;2023-04-03T07:50:16;102617.69;;;0.91;59.03
46756;BME280;32506;52.826;-1.192;2023-04-03T07:52:42;102610.25;;;0.98;58.72
46756;BME280;32506;52.826;-1.192;2023-04-03T07:55:08;102616.72;;;1.07;58.97
46756;BME280;32506;52.826;-1.192;2023-04-03T07:57:35;102617.97;;;1.14;59.50
46756;BME280;32506;52.826;-1.192;2023-04-03T08:00:04;102616.53;;;1.23;59.81
46756;BME280;32506;52.826;-1.192;2023-04-03T08:02:30;102610.56;;;1.33;60.50
46756;BME280;32506;52.826;-1.192;2023-04-03T08:04:59;102616.06;;;1.43;60.78
46756;BME280;32506;52.826;-1.192;2023-04-03T08:07:25;102612.81;;;1.53;61.17
46756;BME280;32506;52.826;-1.192;2023-04-03T08:09:51;102612.09;;;1.63;61.37
46756;BME280;32506;52.826;-1.192;2023-04-03T08:12:16;102612.09;;;1.76;62.40
46756;BME280;32506;52.826;-1.192;2023-04-03T08:14:42;102610.41;;;1.88;62.86
46756;BME280;32506;52.826;-1.192;2023-04-03T08:17:08;102608.63;;;2.01;63.72
46756;BME280;32506;52.826;-1.192;2023-04-03T08:19:37;102612.81;;;2.17;63.51
46756;BME280;32506;52.826;-1.192;2023-04-03T08:22:03;102617.97;;;2.31;63.63
46756;BME280;32506;52.826;-1.192;2023-04-03T08:24:30;102609.81;;;2.47;64.55
46756;BME280;32506;52.826;-1.192;2023-04-03T08:26:56;102607.75;;;2.64;64.85
46756;BME280;32506;52.826;-1.192;2023-04-03T08:29:22;102614.56;;;2.79;64.93
46756;BME280;32506;52.826;-1.192;2023-04-03T08:31:48;102609.72;;;2.97;65.38
46756;BME280;32506;52.826;-1.192;2023-04-03T08:34:15;102617.25;;;3.15;65.88
46756;BME280;32506;52.826;-1.192;2023-04-03T08:36:41;102613.25;;;3.33;65.60
46756;BME280;32506;52.826;-1.192;2023-04-03T08:39:06;102610.28;;;3.49;66.10
46756;BME280;32506;52.826;-1.192;2023-04-03T08:41:43;102610.66;;;3.67;66.53
46756;BME280;32506;52.826;-1.192;2023-04-03T08:44:24;102610.09;;;3.86;66.62
46756;BME280;32506;52.826;-1.192;2023-04-03T08:49:33;102601.94;;;4.24;67.54
46756;BME280;32506;52.826;-1.192;2023-04-03T08:52:04;102606.59;;;4.43;67.89
46756;BME280;32506;52.826;-1.192;2023-04-03T08:54:34;102600.56;;;4.63;68.30
46756;BME280;32506;52.826;-1.192;2023-04-03T08:57:03;102605.91;;;4.84;68.86
46756;BME280;32506;52.826;-1.192;2023-04-03T08:59:33;102602.22;;;5.08;69.20
46756;BME280;32506;52.826;-1.192;2023-04-03T09:02:04;102605.72;;;5.30;69.55
46756;BME280;32506;52.826;-1.192;2023-04-03T09:04:32;102603.94;;;5.51;70.21
46756;BME280;32506;52.826;-1.192;2023-04-03T09:07:08;102603.50;;;5.77;70.14
46756;BME280;32506;52.826;-1.192;2023-04-03T09:09:41;102601.44;;;6.02;70.17
46756;BME280;32506;52.826;-1.192;2023-04-03T09:12:37;102608.81;;;6.29;70.32
46756;BME280;32506;52.826;-1.192;2023-04-03T09:15:24;102598.81;;;6.52;70.26
46756;BME280;32506;52.826;-1.192;2023-04-03T09:18:08;102603.34;;;6.71;70.18
46756;BME280;32506;52.826;-1.192;2023-04-03T09:23:40;102598.03;;;7.20;70.05
46756;BME280;32506;52.826;-1.192;2023-04-03T09:29:16;102603.41;;;7.68;69.82
46756;BME280;32506;52.826;-1.192;2023-04-03T09:31:44;102601.38;;;7.89;69.89
46756;BME280;32506;52.826;-1.192;2023-04-03T09:36:51;102596.16;;;8.35;69.41
46756;BME280;32506;52.826;-1.192;2023-04-03T09:39:19;102597.91;;;8.54;69.37
46756;BME280;32506;52.826;-1.192;2023-04-03T09:44:24;102596.25;;;8.89;68.13
46756;BME280;32506;52.826;-1.192;2023-04-03T09:46:50;102591.22;;;9.04;67.50
46756;BME280;32506;52.826;-1.192;2023-04-03T09:49:17;102588.28;;;9.16;67.05
46756;BME280;32506;52.826;-1.192;2023-04-03T09:51:42;102579.91;;;9.29;66.74
46756;BME280;32506;52.826;-1.192;2023-04-03T09:57:00;102586.09;;;9.55;66.49
46756;BME280;32506;52.826;-1.192;2023-04-03T09:59:26;102579.31;;;9.69;66.32
46756;BME280;32506;52.826;-1.192;2023-04-03T10:02:00;102578.09;;;9.82;66.02
46756;BME280;32506;52.826;-1.192;2023-04-03T10:04:38;102576.47;;;9.97;66.02
46756;BME280;32506;52.826;-1.192;2023-04-03T10:10:20;102582.97;;;10.29;65.27
46756;BME280;32506;52.826;-1.192;2023-04-03T10:12:48;102573.50;;;10.43;65.02
46756;BME280;32506;52.826;-1.192;2023-04-03T10:15:15;102573.69;;;10.58;65.12
46756;BME280;32506;52.826;-1.192;2023-04-03T10:17:54;102565.03;;;10.72;65.26
46756;BME280;32506;52.826;-1.192;2023-04-03T10:20:37;102572.59;;;10.85;64.77
46756;BME280;32506;52.826;-1.192;2023-04-03T10:33:42;102566.22;;;11.44;63.23
46756;BME280;32506;52.826;-1.192;2023-04-03T10:46:54;102542.25;;;12.07;63.93
46756;BME280;32506;52.826;-1.192;2023-04-03T10:52:20;102540.78;;;12.36;64.14
46756;BME280;32506;52.826;-1.192;2023-04-03T10:55:21;102545.03;;;12.53;64.39
46756;BME280;32506;52.826;-1.192;2023-04-03T10:57:40;102537.69;;;12.70;64.90
46756;BME280;32506;52.826;-1.192;2023-04-03T11:00:16;102544.44;;;12.89;65.08
46756;BME280;32506;52.826;-1.192;2023-04-03T11:02:59;102543.91;;;13.09;64.94
46756;BME280;32506;52.826;-1.192;2023-04-03T11:08:02;102533.00;;;13.49;64.77
46756;BME280;32506;52.826;-1.192;2023-04-03T11:10:41;102533.28;;;13.69;64.15
46756;BME280;32506;52.826;-1.192;2023-04-03T11:13:24;102539.72;;;13.89;63.90
46756;BME280;32506;52.826;-1.192;2023-04-03T11:15:53;102545.75;;;14.06;63.55
46756;BME280;32506;52.826;-1.192;2023-04-03T11:18:31;102536.44;;;14.24;63.31
46756;BME280;32506;52.826;-1.192;2023-04-03T11:21:22;102539.06;;;14.39;62.80
46756;BME280;32506;52.826;-1.192;2023-04-03T11:23:51;102540.22;;;14.51;62.05
46756;BME280;32506;52.826;-1.192;2023-04-03T11:26:26;102525.25;;;14.64;62.19
46756;BME280;32506;52.826;-1.192;2023-04-03T11:28:58;102516.91;;;14.73;61.63
46756;BME280;32506;52.826;-1.192;2023-04-03T11:31:38;102516.34;;;14.85;61.84
46756;BME280;32506;52.826;-1.192;2023-04-03T11:36:45;102527.09;;;15.06;61.55
46756;BME280;32506;52.826;-1.192;2023-04-03T11:39:34;102517.03;;;15.15;61.23
46756;BME280;32506;52.826;-1.192;2023-04-03T11:42:33;102503.00;;;15.26;60.35
46756;BME280;32506;52.826;-1.192;2023-04-03T11:47:48;102503.13;;;15.47;60.74
46756;BME280;32506;52.826;-1.192;2023-04-03T11:53:31;102502.22;;;15.74;61.12
46756;BME280;32506;52.826;-1.192;2023-04-03T11:56:26;102499.81;;;15.86;61.05
46756;BME280;32506;52.826;-1.192;2023-04-03T12:04:12;102493.53;;;16.27;60.75
46756;BME280;32506;52.826;-1.192;2023-04-03T12:06:49;102492.91;;;16.39;60.29
46756;BME280;32506;52.826;-1.192;2023-04-03T12:12:34;102483.81;;;16.60;59.56
46756;BME280;32506;52.826;-1.192;2023-04-03T12:15:22;102482.34;;;16.71;59.83
46756;BME280;32506;52.826;-1.192;2023-04-03T12:17:48;102479.44;;;16.79;59.76
46756;BME280;32506;52.826;-1.192;2023-04-03T12:23:34;102478.00;;;17.10;59.30
46756;BME280;32506;52.826;-1.192;2023-04-03T12:28:29;102470.44;;;17.39;59.11
46756;BME280;32506;52.826;-1.192;2023-04-03T12:30:55;102462.09;;;17.54;59.33
46756;BME280;32506;52.826;-1.192;2023-04-03T12:33:36;102457.63;;;17.73;59.41
46756;BME280;32506;52.826;-1.192;2023-04-03T12:36:12;102467.94;;;17.89;58.86
46756;BME280;32506;52.826;-1.192;2023-04-03T12:39:06;102454.78;;;18.06;59.19
46756;BME280;32506;52.826;-1.192;2023-04-03T12:42:01;102449.66;;;18.23;58.92
46756;BME280;32506;52.826;-1.192;2023-04-03T12:44:40;102457.91;;;18.35;58.57
46756;BME280;32506;52.826;-1.192;2023-04-03T12:47:35;102450.31;;;18.51;58.29
46756;BME280;32506;52.826;-1.192;2023-04-03T12:50:04;102452.13;;;18.57;58.27
46756;BME280;32506;52.826;-1.192;2023-04-03T12:52:44;102455.38;;;18.66;57.62
46756;BME280;32506;52.826;-1.192;2023-04-03T12:55:20;102452.97;;;18.76;57.73
46756;BME280;32506;52.826;-1.192;2023-04-03T12:57:46;102454.81;;;18.82;57.76
46756;BME280;32506;52.826;-1.192;2023-04-03T13:00:40;102441.88;;;18.91;57.62
46756;BME280;32506;52.826;-1.192;2023-04-03T13:03:06;102434.47;;;18.98;57.27
46756;BME280;32506;52.826;-1.192;2023-04-03T13:05:32;102430.44;;;19.07;57.32
46756;BME280;32506;52.826;-1.192;2023-04-03T13:08:05;102431.56;;;19.18;57.47
46756;BME280;32506;52.826;-1.192;2023-04-03T13:10:32;102422.06;;;19.27;57.60
46756;BME280;32506;52.826;-1.192;2023-04-03T13:13:09;102416.72;;;19.39;57.34
46756;BME280;32506;52.826;-1.192;2023-04-03T13:15:44;102413.84;;;19.53;57.16
46756;BME280;32506;52.826;-1.192;2023-04-03T13:18:29;102414.25;;;19.68;57.29
46756;BME280;32506;52.826;-1.192;2023-04-03T13:21:05;102405.72;;;19.83;56.75
46756;BME280;32506;52.826;-1.192;2023-04-03T13:23:32;102406.63;;;19.95;56.63
46756;BME280;32506;52.826;-1.192;2023-04-03T13:25:59;102404.28;;;20.11;56.55
46756;BME280;32506;52.826;-1.192;2023-04-03T13:28:29;102405.72;;;20.25;56.53
46756;BME280;32506;52.826;-1.192;2023-04-03T13:33:30;102393.47;;;20.58;56.32
46756;BME280;32506;52.826;-1.192;2023-04-03T13:38:33;102387.69;;;20.90;56.77
46756;BME280;32506;52.826;-1.192;2023-04-03T13:41:02;102392.16;;;21.08;56.91
46756;BME280;32506;52.826;-1.192;2023-04-03T13:43:36;102379.69;;;21.24;56.66
46756;BME280;32506;52.826;-1.192;2023-04-03T13:48:41;102372.50;;;21.59;56.67
46756;BME280;32506;52.826;-1.192;2023-04-03T13:51:19;102375.81;;;21.78;56.18
46756;BME280;32506;52.826;-1.192;2023-04-03T13:53:50;102369.25;;;21.91;56.24
46756;BME280;32506;52.826;-1.192;2023-04-03T13:56:29;102362.19;;;22.07;56.32
46756;BME280;32506;52.826;-1.192;2023-04-03T14:01:52;102359.72;;;22.39;55.98
46756;BME280;32506;52.826;-1.192;2023-04-03T14:04:27;102354.50;;;22.55;55.88
46756;BME280;32506;52.826;-1.192;2023-04-03T14:06:54;102347.59;;;22.69;55.79
46756;BME280;32506;52.826;-1.192;2023-04-03T14:09:21;102355.72;;;22.86;55.27
46756;BME280;32506;52.826;-1.192;2023-04-03T14:11:49;102342.53;;;23.00;55.23
46756;BME280;32506;52.826;-1.192;2023-04-03T14:14:19;102346.28;;;23.16;54.91
46756;BME280;32506;52.826;-1.192;2023-04-03T14:16:48;102342.09;;;23.31;55.21
46756;BME280;32506;52.826;-1.192;2023-04-03T14:19:25;102335.97;;;23.45;55.06
46756;BME280;32506;52.826;-1.192;2023-04-03T14:21:52;102335.28;;;23.60;54.85
46756;BME280;32506;52.826;-1.192;2023-04-03T14:24:18;102331.59;;;23.72;54.45